Time;durP1;ratioP1;P1;durP2;ratioP2;P2;SDS_P1;SDS_P2;PMS_P1;PMS_P2;Temp;Humidity;BMP_temperature;BMP_pressure;BME280_temperature;BME280_humidity;BME280_pressure;Samples;Min_cycle;Max_cycle;Signal;HPM_P1;HPM_P2
2021/08/16 00:27:54;;;;;;;10.73;5.05;;;;;;;;;;5936165;22;4044124;-93
2021/08/16 00:30:33;;;;;;;12.32;4.55;;;;;;;;;;6066309;23;20029;-93
2021/08/16 00:33:09;;;;;;;15.88;6.47;;;;;;;;;;6018701;23;20030;-94
2021/08/16 00:36:07;;;;;;;10.93;5.00;;;;;;;;;;4988922;27;1502071;-95
2021/08/16 00:38:49;;;;;;;9.68;4.80;;;;;;;;;;4928567;28;20055;-95
2021/08/16 00:41:31;;;;;;;9.80;4.25;;;;;;;;;;4650400;28;8185465;-95
2021/08/16 00:55:07;;;;;;;17.25;6.85;;;;;;;;;;5401895;22;15940555;-93
2021/08/16 00:58:04;;;;;;;;;;;;;;;;;;;;;
2021/08/16 01:00:59;;;;;;;;;;;;;;;;;;;;;
2021/08/16 01:03:59;;;;;;;17.80;6.70;;;;;;;;;;4615654;27;10545320;-94
2021/08/16 01:06:59;;;;;;;21.42;7.13;;;;;;;;;;4880731;28;20058;-95
2021/08/16 01:09:53;;;;;;;;;;;;;;;;;;;;;
2021/08/16 01:44:06;;;;;;;16.70;6.50;;;;;;;;;;5254362;23;17718765;-94
2021/08/16 01:47:15;;;;;;;;;;;;;;;;;;4305737;24;58961206;-92
2021/08/16 03:00:54;;;;;;;13.68;8.38;;;;;;;;;;5087258;22;25233552;-94
2021/08/16 03:08:27;;;;;;;;;;;;;;;;;;;;;
2021/08/16 03:11:33;;;;;;;;;;;;;;;;;;;;;
2021/08/16 03:25:05;;;;;;;14.43;7.47;;;;;;;;;;5863684;22;7411534;-95
2021/08/16 03:28:26;;;;;;;10.75;7.22;;;;;;;;;;4994365;28;20444;-94
2021/08/16 03:31:18;;;;;;;;;;;;;;;;;;;;;
2021/08/16 05:51:08;;;;;;;8.30;5.30;;;;;;;;;;4438118;27;16619051;-96
2021/08/16 05:54:03;;;;;;;10.18;4.40;;;;;;;;;;4941496;28;20054;-96
2021/08/16 06:21:00;;;;;;;;;;;;;;;;;;;;;
2021/08/16 06:48:03;;;;;;;5.72;2.85;;;;;;;;;;6104414;22;2093681;-96
2021/08/16 06:50:31;;;;;;;6.88;3.00;;;;;;;;;;6100347;23;21008;-96
2021/08/16 06:53:00;;;;;;;5.75;2.83;;;;;;;;;;6044866;23;237864;-89
2021/08/16 06:55:48;;;;;;;6.82;2.88;;;;;;;;;;5757604;23;6387523;-94
2021/08/16 07:09:08;;;;;;;7.27;2.50;;;;;;;;;;5803973;22;6338420;-92
2021/08/16 07:11:38;;;;;;;6.47;2.00;;;;;;;;;;5871402;23;20030;-92
2021/08/16 07:14:08;;;;;;;3.95;2.20;;;;;;;;;;5834542;24;20049;-94
2021/08/16 07:17:04;;;;;;;4.57;2.08;;;;;;;;;;4709840;27;9727554;-95
2021/08/16 07:20:10;;;;;;;;;;;;;;;;;;;;;
2021/08/16 07:22:47;;;;;;;;;;;;;;;;;;4900666;28;21210;-96
2021/08/16 07:36:15;;;;;;;5.68;1.90;;;;;;;;;;5444435;22;15910951;-95
2021/08/16 07:39:15;;;;;;;6.10;2.35;;;;;;;;;;5948263;23;20057;-96
2021/08/16 07:41:49;;;;;;;5.22;2.12;;;;;;;;;;5885350;23;7392257;-91
2021/08/16 07:54:58;;;;;;;8.50;2.78;;;;;;;;;;5695244;22;9885429;-92
2021/08/16 08:13:50;;;;;;;8.02;2.85;;;;;;;;;;5898174;22;4431646;-94
2021/08/16 08:16:31;;;;;;;7.18;3.30;;;;;;;;;;6035335;23;20033;-92
2021/08/16 08:19:14;;;;;;;4.70;3.00;;;;;;;;;;5959851;23;20541;-93
2021/08/16 08:21:42;;;;;;;5.47;2.35;;;;;;;;;;5989442;23;20024;-94
2021/08/16 08:24:08;;;;;;;8.23;3.65;;;;;;;;;;5970465;23;20057;-94
2021/08/16 08:26:34;;;;;;;8.20;3.30;;;;;;;;;;5985808;23;20124;-88
2021/08/16 08:29:03;;;;;;;9.52;3.83;;;;;;;;;;6036680;23;20360;-89
2021/08/16 08:31:41;;;;;;;7.85;2.67;;;;;;;;;;5881076;24;20035;-90
2021/08/16 08:34:10;;;;;;;7.70;2.67;;;;;;;;;;5791453;24;20038;-92
2021/08/16 08:36:39;;;;;;;9.00;2.45;;;;;;;;;;5807374;24;20021;-90
2021/08/16 08:39:05;;;;;;;7.95;2.67;;;;;;;;;;5907442;23;20035;-90
2021/08/16 08:41:34;;;;;;;5.38;2.30;;;;;;;;;;5871485;23;20024;-94
2021/08/16 08:44:14;;;;;;;;;;;;;;;;;;;;;
2021/08/16 08:46:50;;;;;;;7.97;2.90;;;;;;;;;;5972139;23;20012;-92
2021/08/16 08:51:56;;;;;;;6.63;2.20;;;;;;;;;;6206081;22;20028;-95
2021/08/16 08:54:28;;;;;;;8.07;2.67;;;;;;;;;;6200572;23;20020;-92
2021/08/16 08:56:56;;;;;;;6.20;2.65;;;;;;;;;;6179300;23;20017;-90
2021/08/16 08:59:22;;;;;;;3.95;2.17;;;;;;;;;;6090826;23;20531;-93
2021/08/16 09:01:55;;;;;;;4.03;2.13;;;;;;;;;;6054862;23;20030;-92
2021/08/16 09:04:22;;;;;;;6.32;2.30;;;;;;;;;;5982626;23;20078;-93
2021/08/16 09:06:48;;;;;;;5.10;2.40;;;;;;;;;;5979530;23;20019;-93
2021/08/16 09:09:34;;;;;;;6.97;2.35;;;;;;;;;;5043089;27;20380;-91
2021/08/16 09:12:10;;;;;;;9.43;2.45;;;;;;;;;;4987199;28;20098;-90
2021/08/16 09:14:44;;;;;;;7.00;1.70;;;;;;;;;;4964086;28;20102;-92
2021/08/16 09:17:11;;;;;;;6.53;2.05;;;;;;;;;;4984148;28;20058;-92
2021/08/16 09:19:45;;;;;;;9.13;2.30;;;;;;;;;;4975572;28;20107;-93
2021/08/16 09:22:13;;;;;;;12.13;2.43;;;;;;;;;;4944785;28;20054;-91
2021/08/16 09:24:42;;;;;;;8.52;1.85;;;;;;;;;;4923584;28;20775;-92
2021/08/16 09:27:10;;;;;;;4.30;1.55;;;;;;;;;;4904326;28;20073;-88
2021/08/16 09:29:37;;;;;;;5.30;1.67;;;;;;;;;;4961881;28;20093;-90
2021/08/16 09:32:04;;;;;;;6.13;1.65;;;;;;;;;;5004665;28;20057;-90
2021/08/16 09:34:48;;;;;;;4.63;1.52;;;;;;;;;;5079213;28;20062;-90
2021/08/16 09:37:24;;;;;;;3.70;1.15;;;;;;;;;;4994395;28;20060;-93
2021/08/16 09:40:15;;;;;;;2.50;1.30;;;;;;;;;;4964068;28;20068;-94
2021/08/16 09:42:48;;;;;;;6.32;1.70;;;;;;;;;;5033682;28;20049;-93
2021/08/16 09:45:27;;;;;;;6.05;1.60;;;;;;;;;;5063100;28;20048;-94
2021/08/16 09:48:02;;;;;;;7.47;1.90;;;;;;;;;;5041141;28;20052;-93
2021/08/16 09:50:37;;;;;;;6.95;2.03;;;;;;;;;;5049759;28;20063;-92
2021/08/16 09:53:10;;;;;;;7.93;2.33;;;;;;;;;;5056192;28;20128;-90
2021/08/16 09:55:39;;;;;;;7.47;2.42;;;;;;;;;;5065138;28;20044;-93
2021/08/16 09:58:12;;;;;;;8.90;2.25;;;;;;;;;;5060858;28;20052;-90
2021/08/16 10:00:39;;;;;;;5.80;2.17;;;;;;;;;;5050657;28;20082;-90
2021/08/16 10:03:07;;;;;;;7.88;1.92;;;;;;;;;;5055452;28;20052;-90
2021/08/16 10:05:37;;;;;;;11.38;2.70;;;;;;;;;;5053770;28;20060;-89
2021/08/16 10:08:04;;;;;;;7.13;2.03;;;;;;;;;;5053830;28;20429;-91
2021/08/16 10:10:30;;;;;;;7.25;2.10;;;;;;;;;;5047391;28;20094;-92
2021/08/16 10:12:57;;;;;;;9.18;2.10;;;;;;;;;;5036124;28;20056;-91
2021/08/16 10:15:23;;;;;;;10.25;2.40;;;;;;;;;;5052417;28;20059;-93
2021/08/16 10:17:50;;;;;;;8.38;2.60;;;;;;;;;;5068690;28;20053;-92
2021/08/16 10:20:17;;;;;;;8.48;2.50;;;;;;;;;;5045189;28;20123;-92
2021/08/16 10:22:43;;;;;;;10.52;3.30;;;;;;;;;;5056583;28;20049;-92
2021/08/16 10:25:13;;;;;;;9.52;2.00;;;;;;;;;;5051823;28;20501;-89
2021/08/16 10:27:39;;;;;;;12.18;2.60;;;;;;;;;;5044015;28;20064;-90
2021/08/16 10:30:10;;;;;;;8.00;2.40;;;;;;;;;;5046052;28;20045;-87
2021/08/16 10:32:36;;;;;;;8.32;2.30;;;;;;;;;;5045927;28;20045;-92
2021/08/16 10:35:09;;;;;;;6.22;2.28;;;;;;;;;;5033595;28;20049;-89
2021/08/16 10:37:37;;;;;;;8.38;2.70;;;;;;;;;;5032301;28;20053;-89
2021/08/16 10:40:13;;;;;;;10.35;2.65;;;;;;;;;;5031854;28;20053;-90
2021/08/16 10:42:39;;;;;;;8.15;2.25;;;;;;;;;;5031794;28;20049;-88
2021/08/16 10:45:07;;;;;;;6.00;2.15;;;;;;;;;;5050981;28;20136;-86
2021/08/16 10:47:35;;;;;;;8.65;2.28;;;;;;;;;;5054016;28;20045;-89
2021/08/16 10:50:04;;;;;;;6.75;2.03;;;;;;;;;;5052694;28;20445;-89
2021/08/16 10:52:31;;;;;;;8.25;2.72;;;;;;;;;;5051680;28;20056;-90
2021/08/16 10:55:13;;;;;;;7.85;2.33;;;;;;;;;;5042666;28;20056;-89
2021/08/16 10:57:40;;;;;;;7.63;2.40;;;;;;;;;;5024894;28;20064;-89
2021/08/16 11:00:08;;;;;;;7.05;2.45;;;;;;;;;;5040818;28;20068;-88
2021/08/16 11:02:36;;;;;;;9.95;2.97;;;;;;;;;;5048107;28;20136;-89
2021/08/16 11:05:04;;;;;;;9.50;2.47;;;;;;;;;;5031288;28;20065;-91
2021/08/16 11:07:31;;;;;;;7.18;2.42;;;;;;;;;;5028603;28;20544;-90
2021/08/16 11:09:58;;;;;;;8.63;2.10;;;;;;;;;;5029162;28;20060;-92
2021/08/16 11:12:38;;;;;;;6.45;1.50;;;;;;;;;;5029119;28;20053;-90
2021/08/16 11:15:04;;;;;;;5.72;2.20;;;;;;;;;;5028714;28;20053;-91
2021/08/16 11:17:31;;;;;;;7.43;2.20;;;;;;;;;;5029374;28;20149;-90
2021/08/16 11:20:01;;;;;;;11.43;2.35;;;;;;;;;;5046313;28;20080;-90
2021/08/16 11:22:30;;;;;;;9.25;2.67;;;;;;;;;;5023856;28;20048;-90
2021/08/16 11:25:04;;;;;;;8.27;2.13;;;;;;;;;;5025921;28;20053;-92
2021/08/16 11:27:30;;;;;;;8.98;2.80;;;;;;;;;;5007099;28;20054;-90
2021/08/16 11:29:58;;;;;;;6.22;2.08;;;;;;;;;;5002501;28;20053;-90
2021/08/16 11:32:24;;;;;;;9.38;2.30;;;;;;;;;;5028233;28;20432;-90
2021/08/16 11:34:53;;;;;;;8.05;2.13;;;;;;;;;;5020540;28;20516;-91
2021/08/16 11:37:33;;;;;;;6.85;1.83;;;;;;;;;;4992270;28;20053;-92
2021/08/16 11:39:59;;;;;;;8.63;2.30;;;;;;;;;;5026810;28;20076;-92
2021/08/16 11:42:26;;;;;;;5.57;2.03;;;;;;;;;;5010115;28;20049;-91
2021/08/16 11:44:56;;;;;;;5.32;2.03;;;;;;;;;;4988144;28;20053;-91
2021/08/16 11:47:49;;;;;;;8.35;2.38;;;;;;;;;;5032026;28;20052;-91
2021/08/16 11:50:16;;;;;;;8.50;2.40;;;;;;;;;;5015205;28;20053;-93
2021/08/16 11:52:43;;;;;;;10.73;3.35;;;;;;;;;;5030182;28;20111;-89
2021/08/16 11:55:11;;;;;;;10.80;2.80;;;;;;;;;;4981054;28;20041;-94
2021/08/16 11:57:40;;;;;;;7.13;2.85;;;;;;;;;;4998932;28;20382;-91
2021/08/16 12:00:07;;;;;;;24.42;3.45;;;;;;;;;;4993421;28;20052;-92
2021/08/16 12:02:42;;;;;;;5.68;2.13;;;;;;;;;;4963916;28;20055;-89
2021/08/16 12:05:09;;;;;;;7.22;2.55;;;;;;;;;;5002961;28;20048;-91
2021/08/16 12:07:38;;;;;;;10.57;2.20;;;;;;;;;;4981581;28;20084;-89
2021/08/16 12:10:14;;;;;;;2.78;1.50;;;;;;;;;;5015965;28;20714;-92
2021/08/16 12:12:43;;;;;;;4.35;1.35;;;;;;;;;;4971530;28;20171;-90
2021/08/16 12:15:15;;;;;;;3.47;1.63;;;;;;;;;;5041830;28;20489;-92
2021/08/16 12:17:54;;;;;;;3.58;1.48;;;;;;;;;;4994679;28;20063;-91
2021/08/16 12:20:22;;;;;;;6.43;2.03;;;;;;;;;;4988129;28;20045;-90
2021/08/16 12:22:58;;;;;;;6.50;1.70;;;;;;;;;;4996217;28;20461;-91
2021/08/16 12:25:30;;;;;;;5.47;1.50;;;;;;;;;;5006248;28;20174;-89
2021/08/16 12:28:16;;;;;;;6.07;1.50;;;;;;;;;;4959315;28;20076;-90
2021/08/16 12:30:57;;;;;;;11.13;2.97;;;;;;;;;;4882624;28;20050;-91
2021/08/16 12:34:23;;;;;;;5.13;1.40;;;;;;;;;;5004047;27;20438;-89
2021/08/16 12:36:52;;;;;;;5.47;1.50;;;;;;;;;;4455863;29;10113023;-90
2021/08/16 12:39:43;;;;;;;6.85;1.95;;;;;;;;;;4914643;28;20451;-89
2021/08/16 12:42:28;;;;;;;5.68;1.67;;;;;;;;;;4514517;29;12886507;-89
2021/08/16 12:45:19;;;;;;;7.72;1.88;;;;;;;;;;4948328;27;2059397;-91
2021/08/16 12:48:08;;;;;;;7.32;2.00;;;;;;;;;;4931036;28;20453;-91
2021/08/16 13:01:18;;;;;;;8.35;1.52;;;;;;;;;;4842507;27;4117809;-93
2021/08/16 13:03:51;;;;;;;4.58;1.20;;;;;;;;;;4409507;28;11752321;-89
2021/08/16 13:06:40;;;;;;;3.97;1.23;;;;;;;;;;5038702;27;20411;-91
2021/08/16 13:09:11;;;;;;;3.15;0.70;;;;;;;;;;4979118;28;20080;-92
2021/08/16 13:11:40;;;;;;;8.25;1.63;;;;;;;;;;5083746;28;20453;-90
2021/08/16 13:14:09;;;;;;;5.38;1.63;;;;;;;;;;5044870;28;20063;-90
2021/08/16 13:16:37;;;;;;;8.98;1.40;;;;;;;;;;5018684;28;20508;-91
2021/08/16 13:19:06;;;;;;;3.17;1.23;;;;;;;;;;5020529;28;20113;-91
2021/08/16 13:21:32;;;;;;;4.88;1.65;;;;;;;;;;5062958;28;20048;-91
2021/08/16 13:23:59;;;;;;;4.90;1.60;;;;;;;;;;5035940;28;20063;-92
2021/08/16 13:26:26;;;;;;;6.50;1.75;;;;;;;;;;5009809;28;20076;-91
2021/08/16 13:28:54;;;;;;;6.78;1.73;;;;;;;;;;5035059;27;20053;-91
2021/08/16 13:31:23;;;;;;;5.70;1.48;;;;;;;;;;5071848;27;20071;-89
2021/08/16 13:33:51;;;;;;;7.03;1.63;;;;;;;;;;5035937;27;20067;-89
2021/08/16 13:36:22;;;;;;;8.88;2.10;;;;;;;;;;5051201;28;20090;-90
2021/08/16 13:38:51;;;;;;;7.78;2.47;;;;;;;;;;5016022;28;20053;-88
2021/08/16 13:41:25;;;;;;;7.68;1.90;;;;;;;;;;5036990;28;20134;-92
2021/08/16 13:43:53;;;;;;;9.07;2.53;;;;;;;;;;4961658;28;20054;-90
2021/08/16 13:46:19;;;;;;;5.20;1.50;;;;;;;;;;5011523;28;20135;-90
2021/08/16 13:48:47;;;;;;;9.55;2.13;;;;;;;;;;5027665;28;20798;-87
2021/08/16 13:51:15;;;;;;;7.50;1.80;;;;;;;;;;5034378;28;20057;-92
2021/08/16 13:53:42;;;;;;;6.07;1.70;;;;;;;;;;5031923;28;20056;-92
2021/08/16 13:56:08;;;;;;;4.35;1.20;;;;;;;;;;5042641;28;20052;-92
2021/08/16 13:58:37;;;;;;;3.67;0.90;;;;;;;;;;5034242;28;20196;-90
2021/08/16 14:01:06;;;;;;;5.55;1.35;;;;;;;;;;5038545;28;20044;-90
2021/08/16 14:03:35;;;;;;;4.95;2.03;;;;;;;;;;5034363;28;20097;-93
2021/08/16 14:06:01;;;;;;;5.47;1.13;;;;;;;;;;4938439;28;20684;-89
2021/08/16 14:08:28;;;;;;;5.95;1.40;;;;;;;;;;4936880;28;20048;-90
2021/08/16 14:10:55;;;;;;;6.18;1.70;;;;;;;;;;4962682;28;20148;-90
2021/08/16 14:13:22;;;;;;;5.18;1.88;;;;;;;;;;5014928;28;20072;-91
2021/08/16 14:15:51;;;;;;;8.80;1.90;;;;;;;;;;5047112;28;20187;-88
2021/08/16 14:18:18;;;;;;;8.65;1.67;;;;;;;;;;5036048;28;20136;-88
2021/08/16 14:20:44;;;;;;;8.60;1.98;;;;;;;;;;5052885;28;20425;-88
2021/08/16 14:23:13;;;;;;;6.30;1.80;;;;;;;;;;5024461;28;20299;-91
2021/08/16 14:25:53;;;;;;;;;;;;;;;;;;;;;
2021/08/16 14:28:37;;;;;;;7.80;1.80;;;;;;;;;;4995271;28;20137;-94
2021/08/16 14:31:06;;;;;;;6.75;1.35;;;;;;;;;;4924154;28;20054;-93
2021/08/16 14:33:41;;;;;;;4.05;1.40;;;;;;;;;;4889407;28;20082;-92
2021/08/16 14:36:13;;;;;;;9.25;1.95;;;;;;;;;;4892899;28;20054;-95
2021/08/16 14:39:08;;;;;;;3.72;1.08;;;;;;;;;;4912655;27;1454873;-96
2021/08/16 14:41:38;;;;;;;6.47;1.25;;;;;;;;;;4944465;28;20051;-96
2021/08/16 14:44:07;;;;;;;5.28;1.52;;;;;;;;;;4944703;28;20260;-96
2021/08/16 14:46:33;;;;;;;11.05;2.08;;;;;;;;;;4944115;28;20110;-95
2021/08/16 14:49:02;;;;;;;5.63;1.95;;;;;;;;;;4939980;28;20119;-95
2021/08/16 14:51:31;;;;;;;4.35;1.35;;;;;;;;;;4970910;28;20052;-96
2021/08/16 14:54:06;;;;;;;3.47;1.10;;;;;;;;;;5034131;28;20496;-95
2021/08/16 14:56:37;;;;;;;5.68;1.15;;;;;;;;;;5011854;28;20087;-95
2021/08/16 14:59:04;;;;;;;6.63;1.48;;;;;;;;;;5016399;28;20732;-95
2021/08/16 15:01:35;;;;;;;2.78;0.80;;;;;;;;;;5053735;28;20048;-95
2021/08/16 15:04:07;;;;;;;8.45;1.45;;;;;;;;;;4981521;28;20056;-96
2021/08/16 15:06:36;;;;;;;4.43;1.13;;;;;;;;;;4983914;28;20053;-95
2021/08/16 15:09:03;;;;;;;5.47;1.30;;;;;;;;;;5053789;28;20053;-96
2021/08/16 15:11:29;;;;;;;6.05;1.30;;;;;;;;;;5011109;28;20077;-96
2021/08/16 15:13:58;;;;;;;4.55;1.15;;;;;;;;;;5007194;28;20056;-96
2021/08/16 15:16:27;;;;;;;6.20;1.40;;;;;;;;;;5008316;28;20083;-96
2021/08/16 15:18:55;;;;;;;4.85;1.20;;;;;;;;;;5020535;28;20056;-96
2021/08/16 15:21:24;;;;;;;7.03;1.65;;;;;;;;;;5029261;28;20054;-96
2021/08/16 15:23:52;;;;;;;8.52;1.35;;;;;;;;;;5043149;28;20055;-95
2021/08/16 15:26:18;;;;;;;5.07;1.70;;;;;;;;;;5001124;28;20053;-96
2021/08/16 15:28:49;;;;;;;6.68;1.42;;;;;;;;;;5037722;28;20231;-95
2021/08/16 15:31:16;;;;;;;6.47;1.35;;;;;;;;;;5049497;28;20048;-94
2021/08/16 15:33:54;;;;;;;7.60;1.90;;;;;;;;;;5027323;28;20063;-95
2021/08/16 15:36:28;;;;;;;4.57;1.35;;;;;;;;;;4974273;28;20049;-96
2021/08/16 15:38:59;;;;;;;7.15;1.50;;;;;;;;;;4953073;28;20058;-96
2021/08/16 15:41:31;;;;;;;4.85;1.20;;;;;;;;;;4931248;28;20054;-95
2021/08/16 15:43:58;;;;;;;6.18;1.40;;;;;;;;;;4963452;28;20057;-96
2021/08/16 15:46:26;;;;;;;4.90;1.38;;;;;;;;;;5025173;28;20164;-94
2021/08/16 15:49:00;;;;;;;5.03;1.48;;;;;;;;;;5027902;28;20053;-93
2021/08/16 15:51:26;;;;;;;8.45;1.50;;;;;;;;;;5004740;28;20148;-94
2021/08/16 15:54:16;;;;;;;3.88;1.00;;;;;;;;;;4987427;28;20053;-93
2021/08/16 15:56:49;;;;;;;4.90;1.23;;;;;;;;;;4932408;28;20106;-94
2021/08/16 15:59:21;;;;;;;6.78;1.30;;;;;;;;;;4917576;28;20061;-93
2021/08/16 16:01:50;;;;;;;9.35;1.80;;;;;;;;;;4834051;29;20497;-92
2021/08/16 16:04:21;;;;;;;6.88;1.67;;;;;;;;;;4896666;28;20143;-94
2021/08/16 16:06:49;;;;;;;6.10;1.67;;;;;;;;;;4852033;29;20149;-94
2021/08/16 16:09:16;;;;;;;6.47;1.50;;;;;;;;;;4849913;29;20395;-94
2021/08/16 16:11:44;;;;;;;12.13;1.80;;;;;;;;;;4950874;28;20053;-95
2021/08/16 16:14:11;;;;;;;7.13;1.75;;;;;;;;;;4995588;28;20108;-91
2021/08/16 16:16:37;;;;;;;8.98;1.60;;;;;;;;;;5034389;28;20504;-95
2021/08/16 16:19:04;;;;;;;5.80;1.38;;;;;;;;;;5020818;28;20061;-94
2021/08/16 16:21:31;;;;;;;4.50;1.00;;;;;;;;;;5053370;28;20103;-94
2021/08/16 16:23:57;;;;;;;12.90;1.83;;;;;;;;;;5048403;28;20053;-94
2021/08/16 16:26:24;;;;;;;5.38;1.63;;;;;;;;;;5040769;28;20068;-93
2021/08/16 16:28:50;;;;;;;7.68;1.30;;;;;;;;;;5039685;28;20047;-92
2021/08/16 16:31:16;;;;;;;8.63;1.77;;;;;;;;;;5031443;28;20053;-94
2021/08/16 16:33:47;;;;;;;8.57;1.67;;;;;;;;;;5047774;28;20061;-96
2021/08/16 16:36:15;;;;;;;4.72;1.65;;;;;;;;;;5035541;28;20048;-92
2021/08/16 16:38:42;;;;;;;8.40;1.77;;;;;;;;;;5050857;28;20053;-94
2021/08/16 16:41:08;;;;;;;3.45;1.10;;;;;;;;;;5051135;28;20056;-94
2021/08/16 16:43:34;;;;;;;4.90;0.93;;;;;;;;;;5047146;28;20051;-93
2021/08/16 16:46:03;;;;;;;8.05;1.63;;;;;;;;;;5036194;28;20250;-94
2021/08/16 16:48:29;;;;;;;6.95;1.70;;;;;;;;;;5054889;28;20053;-93
2021/08/16 16:50:56;;;;;;;7.55;1.88;;;;;;;;;;5041992;28;20055;-93
2021/08/16 16:53:22;;;;;;;11.45;2.20;;;;;;;;;;5051107;28;20061;-94
2021/08/16 16:55:48;;;;;;;8.45;2.20;;;;;;;;;;5042609;28;20056;-93
2021/08/16 16:58:15;;;;;;;6.65;1.70;;;;;;;;;;5050494;28;20045;-90
2021/08/16 17:00:43;;;;;;;7.75;1.60;;;;;;;;;;5054248;28;20053;-90
2021/08/16 17:03:11;;;;;;;9.95;1.92;;;;;;;;;;5053841;28;20151;-90
2021/08/16 17:05:38;;;;;;;14.90;1.70;;;;;;;;;;5044169;28;20061;-92
2021/08/16 17:08:04;;;;;;;4.22;1.50;;;;;;;;;;5008771;28;20049;-90
2021/08/16 17:10:30;;;;;;;5.88;1.63;;;;;;;;;;5034624;28;20049;-89
2021/08/16 17:12:56;;;;;;;10.93;1.95;;;;;;;;;;5038211;28;20117;-90
2021/08/16 17:15:22;;;;;;;5.90;1.77;;;;;;;;;;5053216;28;20056;-92
2021/08/16 17:17:49;;;;;;;9.07;2.30;;;;;;;;;;5031422;28;20418;-91
2021/08/16 17:20:15;;;;;;;8.23;2.10;;;;;;;;;;5039957;28;20072;-91
2021/08/16 17:22:41;;;;;;;6.03;1.60;;;;;;;;;;5042380;28;20524;-91
2021/08/16 17:25:11;;;;;;;12.82;2.20;;;;;;;;;;5023570;28;20062;-94
2021/08/16 17:27:40;;;;;;;8.95;2.10;;;;;;;;;;5000096;28;20057;-95
2021/08/16 17:30:06;;;;;;;10.57;1.98;;;;;;;;;;5002535;28;20052;-95
2021/08/16 17:32:33;;;;;;;11.43;2.70;;;;;;;;;;5007339;28;20139;-95
2021/08/16 17:34:59;;;;;;;8.32;2.05;;;;;;;;;;4985704;28;20041;-95
2021/08/16 17:37:27;;;;;;;8.75;2.50;;;;;;;;;;4975135;28;20397;-95
2021/08/16 17:39:56;;;;;;;8.10;2.13;;;;;;;;;;4958566;28;20132;-92
2021/08/16 17:42:22;;;;;;;11.63;2.97;;;;;;;;;;4972133;28;20113;-96
2021/08/16 17:44:51;;;;;;;10.52;2.30;;;;;;;;;;4998159;28;20103;-96
2021/08/16 17:47:30;;;;;;;6.20;2.15;;;;;;;;;;4933847;28;20080;-96
2021/08/16 17:49:59;;;;;;;9.05;2.70;;;;;;;;;;4924108;28;20052;-96
2021/08/16 17:52:27;;;;;;;10.30;2.45;;;;;;;;;;5007729;28;20149;-96
2021/08/16 17:54:56;;;;;;;11.57;2.65;;;;;;;;;;4983593;28;20068;-96
2021/08/16 17:57:25;;;;;;;8.15;2.08;;;;;;;;;;4994588;28;20049;-96
2021/08/16 17:59:51;;;;;;;11.95;2.65;;;;;;;;;;4985101;28;20054;-96
2021/08/16 18:02:21;;;;;;;12.20;2.63;;;;;;;;;;5001901;28;20049;-96
2021/08/16 18:04:53;;;;;;;12.88;2.53;;;;;;;;;;4991853;28;20055;-96
2021/08/16 18:07:22;;;;;;;5.82;1.73;;;;;;;;;;4924089;28;20080;-95
2021/08/16 18:10:11;;;;;;;12.35;2.70;;;;;;;;;;4933758;28;20051;-96
2021/08/16 18:12:40;;;;;;;13.60;2.55;;;;;;;;;;4910781;28;20062;-96
2021/08/16 18:15:07;;;;;;;11.32;2.72;;;;;;;;;;4891152;29;20779;-96
2021/08/16 18:17:35;;;;;;;6.55;1.92;;;;;;;;;;4877084;28;20148;-96
2021/08/16 18:20:10;;;;;;;8.18;2.00;;;;;;;;;;4919146;28;20161;-96
2021/08/16 18:22:40;;;;;;;11.65;2.80;;;;;;;;;;4891023;29;20382;-96
2021/08/16 18:25:14;;;;;;;9.32;2.05;;;;;;;;;;4894270;28;20059;-96
2021/08/16 18:27:40;;;;;;;11.75;2.22;;;;;;;;;;4930891;28;20055;-95
2021/08/16 18:30:12;;;;;;;9.43;1.90;;;;;;;;;;4978973;28;20132;-96
2021/08/16 18:32:39;;;;;;;7.53;2.10;;;;;;;;;;5011202;28;20227;-95
2021/08/16 18:35:07;;;;;;;4.38;1.85;;;;;;;;;;4989314;28;20060;-96
2021/08/16 18:37:42;;;;;;;6.93;1.63;;;;;;;;;;4960180;28;20054;-96
2021/08/16 18:40:12;;;;;;;11.10;2.28;;;;;;;;;;4869683;29;20484;-95
2021/08/16 18:42:42;;;;;;;10.65;2.28;;;;;;;;;;4851744;28;20043;-94
2021/08/16 18:45:27;;;;;;;7.70;1.80;;;;;;;;;;4978292;28;20063;-96
2021/08/16 18:48:04;;;;;;;11.77;2.22;;;;;;;;;;4980037;28;20126;-93
2021/08/16 18:50:31;;;;;;;3.95;1.25;;;;;;;;;;5013915;28;20081;-93
2021/08/16 18:53:05;;;;;;;8.70;2.35;;;;;;;;;;5002134;28;20095;-95
2021/08/16 18:55:52;;;;;;;8.80;2.35;;;;;;;;;;4969462;28;20093;-96
2021/08/16 18:58:29;;;;;;;8.70;2.45;;;;;;;;;;4939050;28;20457;-93
2021/08/16 19:01:26;;;;;;;10.70;2.70;;;;;;;;;;4919539;28;20610;-95
2021/08/16 19:03:59;;;;;;;8.25;2.60;;;;;;;;;;4055565;29;12716817;-92
2021/08/16 19:34:34;;;;;;;13.63;2.58;;;;;;;;;;4972478;27;1418189;-93
2021/08/16 19:37:10;;;;;;;12.88;2.92;;;;;;;;;;4917169;28;20055;-92
2021/08/16 19:50:22;;;;;;;11.15;2.50;;;;;;;;;;5447946;22;15073492;-92
2021/08/16 19:53:20;;;;;;;16.15;3.60;;;;;;;;;;5920538;23;20467;-95
2021/08/16 20:09:53;;;;;;;;;;;;;;;;;;;;;
2021/08/16 20:26:48;;;;;;;16.83;4.22;;;;;;;;;;6093054;22;1353452;-92
2021/08/16 20:29:20;;;;;;;11.50;3.10;;;;;;;;;;6070418;23;20357;-92
2021/08/16 20:31:47;;;;;;;10.70;3.28;;;;;;;;;;6028842;23;20021;-90
2021/08/16 20:34:15;;;;;;;20.35;4.43;;;;;;;;;;6079811;23;20503;-90
2021/08/16 20:36:44;;;;;;;14.82;3.40;;;;;;;;;;6059664;23;20033;-91
2021/08/16 20:39:13;;;;;;;12.77;2.72;;;;;;;;;;5998407;23;20026;-92
2021/08/16 20:41:42;;;;;;;16.98;4.38;;;;;;;;;;6015142;23;20090;-93
2021/08/16 20:44:10;;;;;;;15.07;3.10;;;;;;;;;;6002320;23;20086;-92
2021/08/16 20:46:38;;;;;;;18.20;4.03;;;;;;;;;;6040624;23;20453;-91
2021/08/16 20:49:05;;;;;;;15.60;3.42;;;;;;;;;;6044381;23;20018;-91
2021/08/16 20:51:34;;;;;;;13.43;3.00;;;;;;;;;;6005744;23;20027;-91
2021/08/16 20:54:05;;;;;;;13.43;3.13;;;;;;;;;;6016011;23;20026;-91
2021/08/16 20:56:31;;;;;;;15.65;3.47;;;;;;;;;;6119667;23;20117;-91
2021/08/16 20:58:59;;;;;;;18.63;4.00;;;;;;;;;;6112089;23;20074;-91
2021/08/16 21:01:26;;;;;;;17.77;3.40;;;;;;;;;;6090344;23;20042;-92
2021/08/16 21:03:52;;;;;;;14.15;3.88;;;;;;;;;;6070647;23;20019;-91
2021/08/16 21:06:18;;;;;;;19.95;4.43;;;;;;;;;;6037045;23;20010;-92
2021/08/16 21:08:45;;;;;;;17.73;4.32;;;;;;;;;;6036191;23;20101;-90
2021/08/16 21:11:13;;;;;;;12.38;3.55;;;;;;;;;;6041226;23;20031;-91
2021/08/16 21:13:40;;;;;;;13.82;3.45;;;;;;;;;;6020525;23;20619;-90
2021/08/16 21:16:06;;;;;;;15.10;3.83;;;;;;;;;;6116945;23;20445;-91
2021/08/16 21:18:33;;;;;;;14.13;3.00;;;;;;;;;;6118965;23;20050;-91
2021/08/16 21:21:11;;;;;;;11.18;3.08;;;;;;;;;;6088652;23;20018;-92
2021/08/16 21:23:42;;;;;;;14.48;3.42;;;;;;;;;;6041708;23;20026;-92
2021/08/16 21:26:26;;;;;;;13.25;3.60;;;;;;;;;;5956934;23;39579;-91
2021/08/16 21:29:06;;;;;;;13.50;3.42;;;;;;;;;;4990328;27;1311927;-91
2021/08/16 21:31:35;;;;;;;13.32;3.60;;;;;;;;;;5016907;28;20068;-93
2021/08/16 21:34:06;;;;;;;17.02;3.53;;;;;;;;;;5002289;28;20154;-91
2021/08/16 21:36:37;;;;;;;7.63;2.22;;;;;;;;;;4990510;28;20103;-92
2021/08/16 21:39:03;;;;;;;8.52;3.03;;;;;;;;;;4964452;28;20100;-94
2021/08/16 21:41:31;;;;;;;15.43;4.00;;;;;;;;;;4961647;28;20050;-93
2021/08/16 21:44:00;;;;;;;13.30;3.42;;;;;;;;;;4972386;28;20046;-92
2021/08/16 21:46:26;;;;;;;14.70;3.58;;;;;;;;;;5017230;28;20059;-91
2021/08/16 21:48:53;;;;;;;14.45;3.03;;;;;;;;;;5014722;28;20440;-90
2021/08/16 21:51:19;;;;;;;16.50;3.80;;;;;;;;;;5016689;28;20061;-92
2021/08/16 21:53:48;;;;;;;16.13;4.07;;;;;;;;;;4977502;28;20045;-92
2021/08/16 21:56:14;;;;;;;15.07;3.20;;;;;;;;;;5048576;28;20049;-93
2021/08/16 21:58:41;;;;;;;19.58;4.22;;;;;;;;;;5047459;28;20048;-94
2021/08/16 22:01:09;;;;;;;16.25;4.13;;;;;;;;;;5017920;28;20059;-91
2021/08/16 22:03:36;;;;;;;14.27;4.25;;;;;;;;;;4996216;28;20050;-92
2021/08/16 22:06:05;;;;;;;18.30;3.70;;;;;;;;;;5039387;28;20062;-91
2021/08/16 22:08:34;;;;;;;12.00;3.38;;;;;;;;;;4995471;28;20057;-92
2021/08/16 22:11:01;;;;;;;11.98;3.20;;;;;;;;;;4969495;28;20421;-92
2021/08/16 22:13:28;;;;;;;17.05;4.20;;;;;;;;;;5025513;28;20196;-93
2021/08/16 22:15:57;;;;;;;20.80;3.90;;;;;;;;;;5019307;28;20055;-92
2021/08/16 22:18:23;;;;;;;17.45;3.85;;;;;;;;;;5022982;28;20470;-92
2021/08/16 22:20:52;;;;;;;14.45;3.50;;;;;;;;;;5008625;28;20143;-92
2021/08/16 22:23:18;;;;;;;11.70;3.28;;;;;;;;;;5018853;28;20048;-92
2021/08/16 22:25:45;;;;;;;15.77;3.65;;;;;;;;;;4993521;28;20090;-93
2021/08/16 22:28:11;;;;;;;16.27;4.47;;;;;;;;;;5036109;27;20052;-92
2021/08/16 22:30:38;;;;;;;15.60;3.53;;;;;;;;;;5062335;28;20493;-92
2021/08/16 22:33:08;;;;;;;16.15;3.95;;;;;;;;;;5080211;28;20052;-92
2021/08/16 22:35:35;;;;;;;13.65;3.88;;;;;;;;;;5048000;28;20149;-92
2021/08/16 22:38:01;;;;;;;17.15;4.18;;;;;;;;;;5058570;28;20117;-93
2021/08/16 22:40:27;;;;;;;20.33;3.60;;;;;;;;;;5068801;28;20056;-93
2021/08/16 22:42:59;;;;;;;16.80;4.10;;;;;;;;;;5054839;28;20052;-93
2021/08/16 22:45:25;;;;;;;15.05;3.85;;;;;;;;;;5032684;28;20127;-94
2021/08/16 22:48:00;;;;;;;15.02;3.60;;;;;;;;;;5045593;28;20078;-93
2021/08/16 22:50:47;;;;;;;13.80;3.28;;;;;;;;;;5010480;28;20070;-93
2021/08/16 22:53:13;;;;;;;16.50;3.35;;;;;;;;;;5063856;28;20107;-92
2021/08/16 22:55:41;;;;;;;19.33;3.72;;;;;;;;;;5079378;28;20048;-92
2021/08/16 22:58:08;;;;;;;15.77;4.13;;;;;;;;;;5052737;28;20130;-92
2021/08/16 23:00:36;;;;;;;11.07;3.15;;;;;;;;;;5076713;28;20049;-94
2021/08/16 23:03:02;;;;;;;14.90;3.25;;;;;;;;;;5027635;28;20060;-93
2021/08/16 23:05:28;;;;;;;9.77;3.58;;;;;;;;;;5043532;28;20522;-94
2021/08/16 23:07:54;;;;;;;13.20;3.67;;;;;;;;;;5061297;28;20541;-93